Time;durP1;ratioP1;P1;durP2;ratioP2;P2;SDS_P1;SDS_P2;PMS_P1;PMS_P2;Temp;Humidity;BMP_temperature;BMP_pressure;BME280_temperature;BME280_humidity;BME280_pressure;Samples;Min_cycle;Max_cycle;Signal;HPM_P1;HPM_P2
2022/12/24 00:01:09;;;;;;;2.97;1.63;;;10.10;99.90;;;;;;5030889;28;20262;-72
2022/12/24 00:03:36;;;;;;;6.80;1.50;;;10.00;99.90;;;;;;5012472;28;20236;-70
2022/12/24 00:06:06;;;;;;;6.63;1.90;;;10.00;99.90;;;;;;5048283;28;20216;-71
2022/12/24 00:08:32;;;;;;;9.83;1.90;;;10.00;99.90;;;;;;5029949;28;20467;-71
2022/12/24 00:10:58;;;;;;;5.50;1.60;;;10.00;99.90;;;;;;5032389;28;20494;-72
2022/12/24 00:13:23;;;;;;;4.17;1.57;;;10.00;99.90;;;;;;5031115;28;20227;-72
2022/12/24 00:15:49;;;;;;;3.10;1.60;;;10.00;99.90;;;;;;5035675;28;20273;-72
2022/12/24 00:18:15;;;;;;;9.83;1.90;;;10.00;99.90;;;;;;5012540;28;20311;-70
2022/12/24 00:20:41;;;;;;;5.57;1.77;;;10.00;99.90;;;;;;5031550;28;20223;-71
2022/12/24 00:23:06;;;;;;;3.00;1.23;;;10.00;99.90;;;;;;5030560;28;20214;-71
2022/12/24 00:25:32;;;;;;;5.10;1.43;;;9.90;99.90;;;;;;5017675;28;20219;-72
2022/12/24 00:27:58;;;;;;;1.23;1.10;;;10.00;99.90;;;;;;5047707;28;20215;-71
2022/12/24 00:30:23;;;;;;;4.13;1.60;;;9.90;99.90;;;;;;5014722;28;20703;-72
2022/12/24 00:32:49;;;;;;;7.83;2.20;;;9.90;99.90;;;;;;5048507;28;20219;-72
2022/12/24 00:35:15;;;;;;;5.33;1.50;;;9.90;99.90;;;;;;5035084;28;20232;-71
2022/12/24 00:37:40;;;;;;;2.77;1.23;;;9.90;99.90;;;;;;5027241;28;20216;-71
2022/12/24 00:40:07;;;;;;;3.67;1.50;;;9.90;99.90;;;;;;5044596;28;20726;-71
2022/12/24 00:42:32;;;;;;;5.23;1.97;;;9.90;99.90;;;;;;5031723;28;20305;-71
2022/12/24 00:44:58;;;;;;;8.73;2.50;;;9.90;99.90;;;;;;5030168;28;20977;-71
2022/12/24 00:47:23;;;;;;;6.40;2.27;;;9.90;99.90;;;;;;5030704;28;20263;-71
2022/12/24 00:49:49;;;;;;;8.57;2.33;;;9.90;99.90;;;;;;5041775;28;20695;-72
2022/12/24 00:52:15;;;;;;;4.20;1.83;;;9.90;99.90;;;;;;5042928;28;20227;-71
2022/12/24 00:54:40;;;;;;;3.17;1.73;;;9.90;99.90;;;;;;5029904;28;20220;-71
2022/12/24 00:57:06;;;;;;;13.50;2.47;;;9.90;99.90;;;;;;5028729;28;20220;-71
2022/12/24 00:59:32;;;;;;;2.90;1.93;;;9.90;99.90;;;;;;5029854;28;20596;-72
2022/12/24 01:01:57;;;;;;;1.73;1.53;;;9.90;99.90;;;;;;5027070;28;20302;-71
2022/12/24 01:07:07;;;;;;;4.67;1.60;;;9.90;99.90;;;;;;5047057;28;20227;-71
2022/12/24 01:09:33;;;;;;;6.77;1.97;;;9.90;99.90;;;;;;5047945;28;20544;-71
2022/12/24 01:11:58;;;;;;;6.50;2.40;;;9.90;99.90;;;;;;5012855;28;20269;-71
2022/12/24 01:14:24;;;;;;;3.80;1.77;;;9.90;99.90;;;;;;5026942;28;20227;-71
2022/12/24 01:16:49;;;;;;;8.57;1.53;;;9.90;99.90;;;;;;5027212;28;20224;-72
2022/12/24 01:19:15;;;;;;;7.37;2.03;;;9.90;99.90;;;;;;5032633;28;20226;-71
2022/12/24 01:21:41;;;;;;;7.93;2.17;;;9.80;99.90;;;;;;5018266;28;20247;-71
2022/12/24 01:24:09;;;;;;;6.13;1.57;;;9.80;99.90;;;;;;5052159;28;20239;-70
2022/12/24 01:26:35;;;;;;;5.00;2.10;;;9.80;99.90;;;;;;5035127;28;20254;-72
2022/12/24 01:29:00;;;;;;;6.10;2.00;;;9.80;99.90;;;;;;5033324;28;20482;-72
2022/12/24 01:31:26;;;;;;;3.50;2.10;;;9.80;99.90;;;;;;5033307;28;20319;-71
2022/12/24 01:33:51;;;;;;;5.23;1.90;;;9.80;99.90;;;;;;5034170;28;20235;-72
2022/12/24 01:36:17;;;;;;;7.50;1.90;;;9.80;99.90;;;;;;5052401;28;20269;-72
2022/12/24 01:38:43;;;;;;;3.40;1.57;;;9.80;99.90;;;;;;5026602;28;20224;-71
2022/12/24 01:44:21;;;;;;;7.87;1.50;;;9.80;99.90;;;;;;5047381;28;20215;-72
2022/12/24 01:46:50;;;;;;;10.23;2.50;;;9.80;99.90;;;;;;5047996;28;20462;-71
2022/12/24 01:49:17;;;;;;;7.40;2.00;;;9.70;99.90;;;;;;5032949;28;20469;-71
2022/12/24 01:51:50;;;;;;;6.40;2.20;;;9.70;99.90;;;;;;5050220;28;20860;-71
2022/12/24 01:54:26;;;;;;;5.70;1.80;;;9.70;99.90;;;;;;5029648;28;20463;-72
2022/12/24 01:57:05;;;;;;;7.60;2.17;;;9.70;99.90;;;;;;5044880;28;20461;-72
2022/12/24 01:59:32;;;;;;;2.90;1.47;;;9.70;99.90;;;;;;5027732;28;20548;-73
2022/12/24 02:01:58;;;;;;;4.10;1.90;;;9.70;99.90;;;;;;5021958;28;20466;-71
2022/12/24 02:04:35;;;;;;;16.10;1.90;;;9.70;99.90;;;;;;5009376;28;20471;-72
2022/12/24 02:07:00;;;;;;;8.53;1.97;;;9.70;99.90;;;;;;5020087;28;20239;-72
2022/12/24 02:09:27;;;;;;;5.30;1.80;;;9.70;99.90;;;;;;5004581;28;20454;-71
2022/12/24 02:11:52;;;;;;;4.90;1.60;;;9.70;99.90;;;;;;5026334;28;20224;-72
2022/12/24 02:14:18;;;;;;;6.10;2.00;;;9.70;99.90;;;;;;5025987;28;20462;-72
2022/12/24 02:16:59;;;;;;;3.70;1.50;;;9.70;99.90;;;;;;5010570;28;20235;-72
2022/12/24 02:19:34;;;;;;;8.40;2.40;;;9.70;99.90;;;;;;5026016;28;20466;-72
2022/12/24 02:22:20;;;;;;;8.20;1.97;;;9.60;99.90;;;;;;5029794;28;21042;-71
2022/12/24 02:25:20;;;;;;;7.50;2.03;;;9.60;99.90;;;;;;5027101;28;20450;-72
2022/12/24 02:27:54;;;;;;;4.37;1.97;;;9.60;99.90;;;;;;5031416;28;20462;-72
2022/12/24 02:30:21;;;;;;;6.50;2.30;;;9.60;99.90;;;;;;5044236;28;20471;-72
2022/12/24 02:32:55;;;;;;;2.63;1.70;;;9.60;99.90;;;;;;5023836;28;20455;-72
2022/12/24 02:35:51;;;;;;;4.33;1.50;;;9.60;99.90;;;;;;5012824;28;20977;-72
2022/12/24 02:38:45;;;;;;;8.00;2.13;;;9.70;99.90;;;;;;5036516;28;20450;-71
2022/12/24 02:41:27;;;;;;;5.17;1.67;;;9.60;99.90;;;;;;5022224;28;20538;-71
2022/12/24 02:43:55;;;;;;;3.57;1.70;;;9.70;99.90;;;;;;5042524;28;20463;-72
2022/12/24 02:46:25;;;;;;;3.47;1.67;;;9.70;99.90;;;;;;5010179;28;20458;-72
2022/12/24 02:48:51;;;;;;;1.93;1.43;;;9.70;99.90;;;;;;5020195;28;21029;-72
2022/12/24 02:51:21;;;;;;;5.97;1.60;;;9.70;99.90;;;;;;5011330;28;20474;-71
2022/12/24 02:53:47;;;;;;;6.90;2.00;;;9.70;99.90;;;;;;5010691;28;20558;-74
2022/12/24 02:56:18;;;;;;;2.20;1.20;;;9.70;99.90;;;;;;5046086;28;20531;-71
2022/12/24 02:58:57;;;;;;;4.10;1.87;;;9.70;99.90;;;;;;5041265;28;20258;-72
2022/12/24 03:01:43;;;;;;;6.20;1.93;;;9.60;99.90;;;;;;5008096;28;20599;-73
2022/12/24 03:04:38;;;;;;;5.60;1.97;;;9.60;99.90;;;;;;5044551;28;20830;-71
2022/12/24 03:07:26;;;;;;;4.80;1.60;;;9.60;99.90;;;;;;5019419;28;20466;-71
2022/12/24 03:10:31;;;;;;;10.90;2.60;;;9.60;99.90;;;;;;5031535;28;20458;-72
2022/12/24 03:13:06;;;;;;;5.53;2.27;;;9.60;99.90;;;;;;5042549;28;20458;-71
2022/12/24 03:15:33;;;;;;;4.80;1.80;;;9.60;99.90;;;;;;5050855;28;20457;-71
2022/12/24 03:18:01;;;;;;;5.67;1.97;;;9.60;99.90;;;;;;5049416;28;20458;-71
2022/12/24 03:20:39;;;;;;;1.83;1.60;;;9.60;99.90;;;;;;5025569;28;20455;-71
2022/12/24 03:23:05;;;;;;;3.30;1.80;;;9.60;99.90;;;;;;5007340;28;20446;-69
2022/12/24 03:25:33;;;;;;;4.83;1.60;;;9.60;99.90;;;;;;5045254;28;20455;-72
2022/12/24 03:28:02;;;;;;;7.43;1.73;;;9.70;99.90;;;;;;5047675;28;20547;-72
2022/12/24 03:30:28;;;;;;;9.20;2.03;;;9.70;99.90;;;;;;5036635;28;20474;-72
2022/12/24 03:32:53;;;;;;;2.20;1.47;;;9.70;99.90;;;;;;5013075;28;20452;-72
2022/12/24 03:35:19;;;;;;;5.33;1.63;;;9.70;99.90;;;;;;5013519;28;21019;-72
2022/12/24 03:37:45;;;;;;;12.20;2.20;;;9.60;99.90;;;;;;5031711;28;20224;-71
2022/12/24 03:40:11;;;;;;;3.30;1.60;;;9.60;99.90;;;;;;5042099;28;20277;-71
2022/12/24 03:42:37;;;;;;;6.47;2.07;;;9.50;99.90;;;;;;5031305;28;20450;-72
2022/12/24 03:45:03;;;;;;;5.83;1.60;;;9.50;99.90;;;;;;5048097;28;21044;-71
2022/12/24 03:47:30;;;;;;;2.83;1.70;;;9.50;99.90;;;;;;5049380;28;20220;-72
2022/12/24 03:49:55;;;;;;;3.03;1.50;;;9.50;99.90;;;;;;5019090;28;20469;-73
2022/12/24 03:52:21;;;;;;;9.80;2.00;;;9.50;99.90;;;;;;5014279;28;20521;-72
2022/12/24 03:54:46;;;;;;;2.03;1.60;;;9.40;99.90;;;;;;5023812;28;20216;-72
2022/12/24 03:57:12;;;;;;;5.47;1.97;;;9.40;99.90;;;;;;5029185;28;20224;-72
2022/12/24 03:59:38;;;;;;;3.57;1.60;;;9.40;99.90;;;;;;5023443;28;20220;-72
2022/12/24 04:02:03;;;;;;;6.50;1.90;;;9.40;99.90;;;;;;5031319;28;20215;-69
2022/12/24 04:04:31;;;;;;;10.77;1.73;;;9.40;99.90;;;;;;5032407;28;20216;-72
2022/12/24 04:06:56;;;;;;;2.87;1.60;;;9.40;99.90;;;;;;5026487;28;20283;-71
2022/12/24 04:09:22;;;;;;;4.80;2.00;;;9.40;99.90;;;;;;4996694;28;20448;-72
2022/12/24 04:11:48;;;;;;;3.13;1.80;;;9.30;99.90;;;;;;5049508;28;20277;-72
2022/12/24 04:14:13;;;;;;;11.03;2.07;;;9.30;99.90;;;;;;5008859;28;20219;-72
2022/12/24 04:16:39;;;;;;;4.40;1.93;;;9.40;99.90;;;;;;5028381;28;20253;-72
2022/12/24 04:19:04;;;;;;;4.33;1.50;;;9.40;99.90;;;;;;5028918;28;20239;-72
2022/12/24 04:21:30;;;;;;;5.13;2.07;;;9.40;99.90;;;;;;5028038;28;20711;-72
2022/12/24 04:23:56;;;;;;;4.97;1.50;;;9.40;99.90;;;;;;5044195;28;20591;-72
2022/12/24 04:26:21;;;;;;;7.20;2.03;;;9.40;99.90;;;;;;5031298;28;20586;-72
2022/12/24 04:28:47;;;;;;;2.60;1.40;;;9.40;99.90;;;;;;5047847;28;20211;-72
2022/12/24 04:31:15;;;;;;;6.47;1.60;;;9.40;99.90;;;;;;5031254;28;20236;-72
2022/12/24 04:33:42;;;;;;;3.07;1.50;;;9.40;99.90;;;;;;5034637;28;20227;-72
2022/12/24 04:36:16;;;;;;;3.23;1.67;;;9.30;99.90;;;;;;5014145;28;20455;-72
2022/12/24 04:38:42;;;;;;;5.17;1.50;;;9.40;99.90;;;;;;5010020;28;20458;-71
2022/12/24 04:41:12;;;;;;;12.87;2.00;;;9.30;99.90;;;;;;5048406;28;20499;-72
2022/12/24 04:43:37;;;;;;;4.70;1.80;;;9.30;99.90;;;;;;5044778;28;20469;-72
2022/12/24 04:46:18;;;;;;;6.37;1.83;;;9.30;99.90;;;;;;5030497;28;20969;-71
2022/12/24 04:48:46;;;;;;;3.40;1.57;;;9.30;99.90;;;;;;5026932;28;20224;-72
2022/12/24 04:51:12;;;;;;;8.13;1.57;;;9.30;99.90;;;;;;5043168;28;20564;-71
2022/12/24 04:53:38;;;;;;;4.27;1.70;;;9.30;99.90;;;;;;5030871;28;20463;-72
2022/12/24 04:56:09;;;;;;;5.50;1.80;;;9.30;99.90;;;;;;5022001;28;20542;-71
2022/12/24 04:58:35;;;;;;;2.43;1.40;;;9.30;99.90;;;;;;5024170;28;20463;-71
2022/12/24 05:01:06;;;;;;;4.23;1.40;;;9.30;99.90;;;;;;5046554;28;20954;-72
2022/12/24 05:03:31;;;;;;;6.67;2.30;;;9.30;99.90;;;;;;5014780;28;20285;-73
2022/12/24 05:06:02;;;;;;;9.87;1.80;;;9.30;99.90;;;;;;5028928;28;20995;-72
2022/12/24 05:08:28;;;;;;;7.70;2.37;;;9.30;99.90;;;;;;5035384;28;20208;-72
2022/12/24 05:10:55;;;;;;;5.97;2.07;;;9.30;99.90;;;;;;5046323;28;20501;-72
2022/12/24 05:13:21;;;;;;;3.03;1.60;;;9.20;99.90;;;;;;5048796;28;20219;-72
2022/12/24 05:15:46;;;;;;;14.37;1.40;;;9.30;99.90;;;;;;5048453;28;20458;-72
2022/12/24 05:18:12;;;;;;;12.60;2.20;;;9.30;99.90;;;;;;5023114;28;20277;-72
2022/12/24 05:20:40;;;;;;;5.10;1.83;;;9.20;99.90;;;;;;5032820;28;20219;-72
2022/12/24 05:28:34;;;;;;;7.60;1.73;;;9.30;99.90;;;;;;5026178;28;20466;-73
2022/12/24 05:31:00;;;;;;;9.77;2.10;;;9.30;99.90;;;;;;5028905;28;20841;-71
2022/12/24 05:33:26;;;;;;;5.53;1.73;;;9.30;99.90;;;;;;5048118;28;20582;-72
2022/12/24 05:35:51;;;;;;;3.57;1.63;;;9.30;99.90;;;;;;5031734;28;20219;-72
2022/12/24 05:38:17;;;;;;;2.43;1.40;;;9.30;99.90;;;;;;5045686;28;20223;-72
2022/12/24 05:40:43;;;;;;;10.57;2.77;;;9.30;99.90;;;;;;5030133;28;20252;-72
2022/12/24 05:43:09;;;;;;;8.57;1.50;;;9.30;99.90;;;;;;5010757;28;20212;-72
2022/12/24 05:45:34;;;;;;;2.30;1.17;;;9.30;99.90;;;;;;5005631;28;20728;-72
2022/12/24 05:48:00;;;;;;;2.70;1.53;;;9.30;99.90;;;;;;5024856;28;20668;-72
2022/12/24 05:50:26;;;;;;;8.67;1.60;;;9.20;99.90;;;;;;5010955;28;20259;-72
2022/12/24 05:53:03;;;;;;;4.77;1.80;;;9.20;99.90;;;;;;5048483;28;20676;-71
2022/12/24 05:55:29;;;;;;;3.73;2.00;;;9.20;99.90;;;;;;5038676;28;20474;-72
2022/12/24 05:57:55;;;;;;;2.80;1.70;;;9.20;99.90;;;;;;5011506;28;20256;-72
2022/12/24 06:00:21;;;;;;;5.33;1.73;;;9.20;99.90;;;;;;5012995;28;20720;-72
2022/12/24 06:02:46;;;;;;;10.77;3.40;;;9.20;99.90;;;;;;5027171;28;20290;-72
2022/12/24 06:05:12;;;;;;;9.23;2.30;;;9.20;99.90;;;;;;5029755;28;20248;-72
2022/12/24 06:07:37;;;;;;;4.00;1.40;;;9.20;99.90;;;;;;5015742;28;20231;-72
2022/12/24 06:10:04;;;;;;;12.83;1.70;;;9.10;99.90;;;;;;5048036;28;20220;-71
2022/12/24 06:12:30;;;;;;;6.57;2.03;;;9.10;99.90;;;;;;5029568;28;20270;-72
2022/12/24 06:14:55;;;;;;;14.90;2.27;;;9.10;99.90;;;;;;5051250;28;20478;-74
2022/12/24 06:17:21;;;;;;;3.23;2.30;;;9.10;99.90;;;;;;5017344;28;20227;-72
2022/12/24 06:19:47;;;;;;;9.07;2.57;;;9.10;99.90;;;;;;5030831;28;20208;-72
2022/12/24 06:22:12;;;;;;;11.00;2.53;;;9.10;99.90;;;;;;5014639;28;20591;-72
2022/12/24 06:24:38;;;;;;;5.53;2.00;;;9.10;99.90;;;;;;5005730;28;20224;-72
2022/12/24 06:27:04;;;;;;;8.70;1.90;;;9.10;99.90;;;;;;5050373;28;20215;-71
2022/12/24 06:29:29;;;;;;;3.17;1.47;;;9.10;99.90;;;;;;5017079;28;20234;-72
2022/12/24 06:31:55;;;;;;;5.07;1.77;;;9.10;99.90;;;;;;5045803;28;20707;-72
2022/12/24 06:34:20;;;;;;;7.80;1.60;;;9.10;99.90;;;;;;5031739;28;20235;-71
2022/12/24 06:36:46;;;;;;;5.13;1.93;;;9.10;99.90;;;;;;5032355;28;20223;-72
2022/12/24 06:39:12;;;;;;;6.10;2.23;;;9.10;99.90;;;;;;5029856;28;20231;-71
2022/12/24 06:41:37;;;;;;;19.83;2.80;;;9.10;99.90;;;;;;5025214;28;20216;-72
2022/12/24 06:44:03;;;;;;;3.90;1.57;;;9.10;99.90;;;;;;5031686;28;20216;-71
2022/12/24 06:46:29;;;;;;;7.17;2.63;;;9.10;99.90;;;;;;5033835;28;20228;-72
2022/12/24 06:48:54;;;;;;;7.53;2.10;;;9.10;99.90;;;;;;5049299;28;20882;-71
2022/12/24 06:51:20;;;;;;;9.00;2.37;;;9.10;99.90;;;;;;5023862;28;20220;-72
2022/12/24 06:53:49;;;;;;;18.10;2.30;;;9.10;99.90;;;;;;5048238;28;20683;-71
2022/12/24 06:56:15;;;;;;;2.13;1.77;;;9.20;99.90;;;;;;5033633;28;20766;-71
2022/12/24 06:58:41;;;;;;;8.97;2.13;;;9.20;99.90;;;;;;5049232;28;20542;-71
2022/12/24 07:01:09;;;;;;;7.40;2.17;;;9.20;99.90;;;;;;5050965;28;20219;-71
2022/12/24 07:03:35;;;;;;;8.20;2.30;;;9.20;99.90;;;;;;5033996;28;20472;-72
2022/12/24 07:06:00;;;;;;;9.33;2.77;;;9.10;99.90;;;;;;5033452;28;20545;-71
2022/12/24 07:08:26;;;;;;;4.03;2.20;;;9.20;99.90;;;;;;5017295;28;20242;-72
2022/12/24 07:10:52;;;;;;;14.03;3.20;;;9.10;99.90;;;;;;5016692;28;20215;-72
2022/12/24 07:13:19;;;;;;;11.90;2.40;;;9.10;99.90;;;;;;5032712;28;20615;-72
2022/12/24 07:15:44;;;;;;;8.50;1.87;;;9.10;99.90;;;;;;5019416;28;20864;-72
2022/12/24 07:18:11;;;;;;;16.47;3.33;;;9.20;99.90;;;;;;5032000;28;20451;-71
2022/12/24 07:20:37;;;;;;;11.93;2.73;;;9.10;99.90;;;;;;5029887;28;20243;-71
2022/12/24 07:23:02;;;;;;;8.20;2.43;;;9.10;99.90;;;;;;5050910;28;20575;-72
2022/12/24 07:25:28;;;;;;;11.33;2.37;;;9.10;99.90;;;;;;5032799;28;20490;-71
2022/12/24 07:27:54;;;;;;;10.23;2.23;;;9.10;99.90;;;;;;5027916;28;20219;-72
2022/12/24 07:30:19;;;;;;;4.27;2.10;;;9.20;99.90;;;;;;5030794;28;20219;-71
2022/12/24 07:32:45;;;;;;;6.53;2.60;;;9.10;99.90;;;;;;5032807;28;20220;-71
2022/12/24 07:35:10;;;;;;;5.07;2.43;;;9.10;99.90;;;;;;5033574;28;20216;-71
2022/12/24 07:37:36;;;;;;;8.20;2.43;;;9.20;99.90;;;;;;5033043;28;20226;-71
2022/12/24 07:40:06;;;;;;;6.50;2.07;;;9.20;99.90;;;;;;5027599;28;20216;-72
2022/12/24 07:42:33;;;;;;;9.43;2.23;;;9.10;99.90;;;;;;5028530;28;20464;-72
2022/12/24 07:44:58;;;;;;;10.50;2.90;;;9.20;99.90;;;;;;5032183;28;20466;-72
2022/12/24 07:47:24;;;;;;;5.90;2.80;;;9.20;99.90;;;;;;5065778;28;20256;-72
2022/12/24 07:49:49;;;;;;;10.57;2.90;;;9.20;99.90;;;;;;5031176;28;20223;-71
2022/12/24 07:52:15;;;;;;;10.50;2.20;;;9.20;99.90;;;;;;5033031;28;20232;-71
2022/12/24 07:54:41;;;;;;;4.97;2.60;;;9.20;99.90;;;;;;5018568;28;20222;-71
2022/12/24 07:57:07;;;;;;;8.23;2.23;;;9.20;99.90;;;;;;5027933;28;20220;-71
2022/12/24 07:59:33;;;;;;;8.00;2.67;;;9.20;99.90;;;;;;5019934;28;20227;-72
2022/12/24 08:01:58;;;;;;;8.37;2.90;;;9.20;99.90;;;;;;5032596;28;20228;-72
2022/12/24 08:04:24;;;;;;;6.80;2.33;;;9.30;99.90;;;;;;5032297;28;20243;-71
2022/12/24 08:06:50;;;;;;;7.27;3.50;;;9.30;99.90;;;;;;5015836;28;20216;-71
2022/12/24 08:09:15;;;;;;;12.57;3.33;;;9.30;99.90;;;;;;5031718;28;20596;-71
2022/12/24 08:11:41;;;;;;;13.53;3.40;;;9.30;99.90;;;;;;5032838;28;20227;-72
2022/12/24 08:14:07;;;;;;;10.80;2.40;;;9.30;99.90;;;;;;5044752;28;20219;-71
2022/12/24 08:16:33;;;;;;;9.70;2.80;;;9.30;99.90;;;;;;5032651;28;20454;-71
2022/12/24 08:18:58;;;;;;;14.47;3.70;;;9.30;99.90;;;;;;5030711;28;20216;-71
2022/12/24 08:21:24;;;;;;;6.30;2.57;;;9.40;99.90;;;;;;5016029;28;20266;-70
2022/12/24 08:23:50;;;;;;;8.33;3.40;;;9.30;99.90;;;;;;5049499;28;20638;-72
2022/12/24 08:26:16;;;;;;;18.20;3.53;;;9.40;99.90;;;;;;5031561;28;20336;-72
2022/12/24 08:28:42;;;;;;;19.23;3.60;;;9.40;99.90;;;;;;5015614;28;20285;-71
2022/12/24 08:31:08;;;;;;;12.00;3.30;;;9.40;99.90;;;;;;5031524;28;20536;-72
2022/12/24 08:33:34;;;;;;;5.03;2.40;;;9.50;99.90;;;;;;5032447;28;20462;-72
2022/12/24 08:36:01;;;;;;;6.67;2.73;;;9.50;99.90;;;;;;5029154;28;20299;-71
2022/12/24 08:38:27;;;;;;;8.50;2.37;;;9.50;99.90;;;;;;5007852;28;20229;-71
2022/12/24 08:40:53;;;;;;;7.93;2.83;;;9.50;99.90;;;;;;5028202;28;20453;-71
2022/12/24 08:43:20;;;;;;;14.50;3.73;;;9.50;99.90;;;;;;5044024;28;20298;-71
2022/12/24 08:45:48;;;;;;;12.13;3.33;;;9.60;99.90;;;;;;5044496;28;20481;-71
2022/12/24 08:48:14;;;;;;;9.00;2.70;;;9.70;99.90;;;;;;5043971;28;20451;-69
2022/12/24 08:50:40;;;;;;;14.63;3.20;;;9.60;99.90;;;;;;5020174;28;20481;-72
2022/12/24 08:53:08;;;;;;;8.53;3.20;;;9.70;99.90;;;;;;5044861;28;20444;-69
2022/12/24 08:55:33;;;;;;;14.80;2.90;;;9.70;99.90;;;;;;5031093;28;20545;-72
2022/12/24 08:58:00;;;;;;;6.30;2.90;;;9.70;99.90;;;;;;5030058;28;20475;-71
2022/12/24 09:00:26;;;;;;;16.37;3.50;;;9.80;99.90;;;;;;5046131;28;20589;-72
2022/12/24 09:02:52;;;;;;;9.10;2.30;;;9.70;99.90;;;;;;5049537;28;20450;-72
2022/12/24 09:05:17;;;;;;;12.63;3.27;;;9.80;99.90;;;;;;5015008;28;20784;-72
2022/12/24 09:07:43;;;;;;;12.80;3.10;;;9.80;99.90;;;;;;5031372;28;20769;-71
2022/12/24 09:10:10;;;;;;;10.07;2.50;;;9.80;99.90;;;;;;5042875;28;20215;-71
2022/12/24 09:12:36;;;;;;;20.97;4.10;;;9.80;99.90;;;;;;5030800;28;20698;-72
2022/12/24 09:15:02;;;;;;;8.70;2.80;;;9.90;99.90;;;;;;5047960;28;20497;-72
2022/12/24 09:17:28;;;;;;;6.50;3.20;;;9.90;99.90;;;;;;5031095;28;20450;-72
2022/12/24 09:19:53;;;;;;;14.13;5.23;;;9.80;99.90;;;;;;5027685;28;20446;-72
2022/12/24 09:22:21;;;;;;;18.27;8.00;;;9.90;99.90;;;;;;5014835;28;20273;-72
2022/12/24 09:24:46;;;;;;;21.10;4.53;;;9.90;99.90;;;;;;5028975;28;20720;-72
2022/12/24 09:27:12;;;;;;;13.20;3.73;;;10.00;99.90;;;;;;5052525;28;20552;-71
2022/12/24 09:29:39;;;;;;;8.60;3.13;;;10.00;99.90;;;;;;5031240;28;20235;-72
2022/12/24 09:32:06;;;;;;;13.50;4.20;;;10.10;99.90;;;;;;5030026;28;20227;-71
2022/12/24 09:34:32;;;;;;;6.87;3.90;;;10.20;99.90;;;;;;5049381;28;20529;-72
2022/12/24 09:36:59;;;;;;;11.83;4.50;;;10.20;99.90;;;;;;5030777;28;20553;-70
2022/12/24 09:39:25;;;;;;;8.50;4.03;;;10.30;99.90;;;;;;5029172;28;20223;-72
2022/12/24 09:42:17;;;;;;;8.90;2.97;;;10.40;99.90;;;;;;5022873;28;20447;-71
2022/12/24 09:45:02;;;;;;;5.00;2.17;;;10.40;99.90;;;;;;5020293;28;20211;-71
2022/12/24 09:47:38;;;;;;;5.03;2.10;;;10.50;99.90;;;;;;5034119;28;20984;-72
2022/12/24 09:50:21;;;;;;;16.70;6.67;;;10.50;99.90;;;;;;5051999;28;20462;-71
2022/12/24 09:52:48;;;;;;;17.53;8.10;;;10.50;99.90;;;;;;5033993;28;20960;-72
2022/12/24 09:55:22;;;;;;;10.77;3.70;;;10.50;99.90;;;;;;5021818;28;20445;-71
2022/12/24 09:57:50;;;;;;;5.90;2.60;;;10.60;99.90;;;;;;5028444;28;21084;-72
2022/12/24 10:00:22;;;;;;;11.07;3.97;;;10.60;99.90;;;;;;5048919;28;20446;-72
2022/12/24 10:02:48;;;;;;;11.50;3.47;;;10.60;99.90;;;;;;5011100;28;20471;-73
2022/12/24 10:05:14;;;;;;;8.30;2.83;;;10.60;99.90;;;;;;5014347;28;20442;-72
2022/12/24 10:07:53;;;;;;;15.70;3.93;;;10.70;99.90;;;;;;5014716;28;20454;-71
2022/12/24 10:10:48;;;;;;;6.10;2.57;;;10.70;99.90;;;;;;5028812;28;20471;-72
2022/12/24 10:13:36;;;;;;;8.43;2.47;;;10.80;99.90;;;;;;5007732;28;20937;-72
2022/12/24 10:16:17;;;;;;;5.60;1.80;;;11.00;99.90;;;;;;5018712;28;20840;-71
2022/12/24 10:19:01;;;;;;;15.80;2.90;;;11.00;99.90;;;;;;5027484;28;20876;-72
2022/12/24 10:22:04;;;;;;;4.50;2.00;;;11.00;99.90;;;;;;5025646;28;20439;-72
2022/12/24 10:24:48;;;;;;;8.77;3.87;;;11.10;99.90;;;;;;5023458;28;20453;-72
2022/12/24 10:27:16;;;;;;;6.17;2.90;;;11.20;99.90;;;;;;5027596;28;20546;-72
2022/12/24 10:29:47;;;;;;;6.30;2.60;;;11.20;99.90;;;;;;5029068;28;20557;-72
2022/12/24 10:32:25;;;;;;;9.10;2.37;;;11.20;99.90;;;;;;5012877;28;20470;-72
2022/12/24 10:35:13;;;;;;;16.30;2.30;;;11.20;99.90;;;;;;5028015;28;20469;-72
2022/12/24 10:37:42;;;;;;;8.10;2.93;;;11.20;99.90;;;;;;5026284;28;20473;-71
2022/12/24 10:40:17;;;;;;;9.20;2.60;;;11.20;99.90;;;;;;5027534;28;20890;-72
2022/12/24 10:42:43;;;;;;;5.73;2.20;;;11.20;99.90;;;;;;5028304;28;20474;-71
2022/12/24 10:45:14;;;;;;;7.90;2.57;;;11.20;99.90;;;;;;5046872;28;20465;-72
2022/12/24 10:47:42;;;;;;;17.73;7.30;;;11.20;99.90;;;;;;5045091;28;20220;-72
2022/12/24 10:50:28;;;;;;;12.40;8.40;;;11.20;99.90;;;;;;5032132;28;20454;-71
2022/12/24 10:52:59;;;;;;;19.37;10.27;;;11.10;99.90;;;;;;5038662;28;20454;-72
2022/12/24 10:55:27;;;;;;;17.17;10.77;;;11.20;99.90;;;;;;5032631;28;20446;-72
2022/12/24 10:58:01;;;;;;;12.53;9.10;;;11.20;99.90;;;;;;5030543;28;20469;-72
2022/12/24 11:00:28;;;;;;;10.20;6.83;;;11.20;99.90;;;;;;5050253;28;20457;-72
2022/12/24 11:03:07;;;;;;;13.73;3.90;;;11.20;99.90;;;;;;5048366;28;20457;-71
2022/12/24 11:05:35;;;;;;;6.00;2.60;;;11.20;99.90;;;;;;5051620;28;20454;-72
2022/12/24 11:08:12;;;;;;;12.17;2.60;;;11.20;99.90;;;;;;5008005;28;21039;-71
2022/12/24 11:11:04;;;;;;;8.50;3.30;;;11.20;99.90;;;;;;5022793;28;20512;-72
2022/12/24 11:13:42;;;;;;;10.07;3.47;;;11.20;99.90;;;;;;5029448;28;20437;-72
2022/12/24 11:16:20;;;;;;;9.30;2.37;;;11.20;99.90;;;;;;5049163;28;20823;-72
2022/12/24 11:18:52;;;;;;;6.70;3.00;;;11.20;99.90;;;;;;5020872;28;20958;-73
2022/12/24 11:21:21;;;;;;;16.60;3.40;;;11.20;99.90;;;;;;5019136;28;20459;-72
2022/12/24 11:23:58;;;;;;;8.93;2.87;;;11.20;99.90;;;;;;5013993;28;20524;-72
2022/12/24 11:26:26;;;;;;;9.00;3.37;;;11.20;99.90;;;;;;5030047;28;21041;-72
2022/12/24 11:29:04;;;;;;;6.27;2.70;;;11.20;99.90;;;;;;5012868;28;20494;-72
2022/12/24 11:31:31;;;;;;;9.13;3.47;;;11.20;99.90;;;;;;5012830;28;20903;-72
2022/12/24 11:33:57;;;;;;;17.03;4.97;;;11.20;99.90;;;;;;5047301;28;20515;-72
2022/12/24 11:36:26;;;;;;;24.83;10.70;;;11.20;99.90;;;;;;5030088;28;20479;-72
2022/12/24 11:38:55;;;;;;;51.93;19.60;;;11.20;99.90;;;;;;5045884;28;20223;-72
2022/12/24 11:41:22;;;;;;;74.70;33.33;;;11.20;99.90;;;;;;5029758;28;20451;-73
2022/12/24 11:43:51;;;;;;;61.63;27.83;;;11.20;99.90;;;;;;5028284;28;20472;-72
2022/12/24 11:46:37;;;;;;;30.07;12.90;;;11.20;99.90;;;;;;5030713;28;20459;-73
2022/12/24 11:49:12;;;;;;;51.63;24.20;;;11.20;99.90;;;;;;5047436;28;20842;-71
2022/12/24 11:52:10;;;;;;;29.57;18.50;;;11.20;99.90;;;;;;5024774;28;20505;-72
2022/12/24 11:55:19;;;;;;;13.93;11.17;;;11.20;99.90;;;;;;5047713;28;20470;-72
2022/12/24 11:58:18;;;;;;;16.37;7.30;;;11.20;99.90;;;;;;4990524;28;20528;-72
2022/12/24 12:00:46;;;;;;;14.27;4.40;;;11.20;99.90;;;;;;5012749;28;20451;-72
2022/12/24 12:03:31;;;;;;;18.90;3.27;;;11.20;99.90;;;;;;5046382;28;20455;-72
2022/12/24 12:05:59;;;;;;;6.90;2.80;;;11.20;99.90;;;;;;5026061;28;20447;-72
2022/12/24 12:08:26;;;;;;;5.70;2.87;;;11.20;99.90;;;;;;5018860;28;20883;-72
2022/12/24 12:10:53;;;;;;;8.33;3.50;;;11.20;99.90;;;;;;5028432;28;20543;-72
2022/12/24 12:13:32;;;;;;;16.53;3.73;;;11.20;99.90;;;;;;5046585;28;20447;-72
2022/12/24 12:16:18;;;;;;;5.80;2.63;;;11.20;99.90;;;;;;5045997;28;20450;-72
2022/12/24 12:18:51;;;;;;;17.27;3.67;;;11.20;99.90;;;;;;5011711;28;20541;-71
2022/12/24 12:21:22;;;;;;;12.83;3.73;;;11.20;99.90;;;;;;5021917;28;20451;-72
2022/12/24 12:23:56;;;;;;;7.47;3.17;;;11.30;99.90;;;;;;5043592;28;20516;-72
2022/12/24 12:26:27;;;;;;;5.53;2.60;;;11.30;99.90;;;;;;5045650;28;20453;-72
2022/12/24 12:29:23;;;;;;;12.33;3.63;;;11.30;99.90;;;;;;5027371;28;20442;-72
2022/12/24 12:31:56;;;;;;;10.47;2.80;;;11.40;99.90;;;;;;5034861;28;20501;-73
2022/12/24 12:34:34;;;;;;;8.40;3.30;;;11.40;99.90;;;;;;5027286;28;20451;-72
2022/12/24 12:37:14;;;;;;;6.23;2.77;;;11.40;99.90;;;;;;5028620;28;20483;-70
2022/12/24 12:39:40;;;;;;;11.27;3.17;;;11.40;99.90;;;;;;5017845;28;20465;-72
2022/12/24 12:42:15;;;;;;;7.67;3.10;;;11.40;99.90;;;;;;5029221;28;20450;-73
2022/12/24 12:45:10;;;;;;;8.13;2.93;;;11.50;99.90;;;;;;5025334;28;20216;-73
2022/12/24 12:48:00;;;;;;;16.73;3.17;;;11.50;99.90;;;;;;5011834;28;20447;-73
2022/12/24 12:50:31;;;;;;;15.10;2.90;;;11.60;99.90;;;;;;5042304;28;20463;-72
2022/12/24 12:53:18;;;;;;;12.27;3.60;;;11.60;99.90;;;;;;5022283;28;20459;-73
2022/12/24 12:56:06;;;;;;;5.73;3.17;;;11.70;99.90;;;;;;5043531;28;20467;-73
2022/12/24 12:58:57;;;;;;;7.67;3.37;;;11.80;99.90;;;;;;5004486;28;20444;-73
2022/12/24 13:01:58;;;;;;;5.93;2.83;;;11.70;99.90;;;;;;5046382;28;20466;-73
2022/12/24 13:05:05;;;;;;;8.53;3.40;;;11.70;99.90;;;;;;5022760;28;20954;-72
2022/12/24 13:07:58;;;;;;;8.90;3.17;;;11.70;99.90;;;;;;5026356;28;20979;-73
2022/12/24 13:10:37;;;;;;;10.47;3.70;;;11.70;99.90;;;;;;5030359;28;20454;-73
2022/12/24 13:13:27;;;;;;;10.50;3.63;;;11.70;99.90;;;;;;5014133;28;20977;-73
2022/12/24 13:16:20;;;;;;;5.70;3.30;;;11.70;99.90;;;;;;5045316;28;20458;-73
2022/12/24 13:18:55;;;;;;;9.00;3.43;;;11.60;99.90;;;;;;5028892;28;20986;-73